Time;durP1;ratioP1;P1;durP2;ratioP2;P2;SDS_P1;SDS_P2;PMS_P1;PMS_P2;Temp;Humidity;BMP_temperature;BMP_pressure;BME280_temperature;BME280_humidity;BME280_pressure;Samples;Min_cycle;Max_cycle;Signal;HPM_P1;HPM_P2
2023/06/27 00:01:49;;;;;;;3.70;0.30;;;;;;;20.48;56.01;101736.53;7356338;19;20939;-62
2023/06/27 00:04:19;;;;;;;4.28;0.38;;;;;;;20.45;56.38;101742.31;7355028;19;20016;-61
2023/06/27 00:06:46;;;;;;;3.42;1.13;;;;;;;20.42;55.78;101753.38;7359567;19;21768;-60
2023/06/27 00:09:15;;;;;;;1.85;0.50;;;;;;;20.39;56.18;101749.25;7361995;19;20113;-61
2023/06/27 00:11:42;;;;;;;7.10;0.40;;;;;;;20.36;56.46;101743.47;7361237;19;20049;-60
2023/06/27 00:14:10;;;;;;;2.55;0.40;;;;;;;20.34;56.29;101740.16;7358266;19;20018;-60
2023/06/27 00:16:39;;;;;;;2.42;0.40;;;;;;;20.30;56.55;101734.34;7356916;19;20014;-60
2023/06/27 00:19:06;;;;;;;5.22;0.90;;;;;;;20.29;56.51;101735.38;7358734;19;20086;-61
2023/06/27 00:21:35;;;;;;;3.90;0.40;;;;;;;20.27;56.57;101741.91;7359570;19;20610;-60
2023/06/27 00:24:03;;;;;;;4.68;0.50;;;;;;;20.27;56.98;101744.56;7358374;19;20014;-60
2023/06/27 00:26:31;;;;;;;5.28;0.40;;;;;;;20.23;57.54;101725.44;7360306;19;20014;-61
2023/06/27 00:28:58;;;;;;;2.88;0.30;;;;;;;20.19;57.40;101731.38;7358656;19;20086;-60
2023/06/27 00:31:26;;;;;;;4.07;0.40;;;;;;;20.10;56.99;101738.72;7359567;19;20010;-61
2023/06/27 00:33:53;;;;;;;3.85;0.32;;;;;;;20.08;57.12;101738.06;7358325;19;21668;-61
2023/06/27 00:36:20;;;;;;;6.25;0.35;;;;;;;20.06;57.33;101743.59;7359698;19;20003;-61
2023/06/27 00:38:48;;;;;;;4.88;0.40;;;;;;;20.05;57.31;101739.28;7360126;19;20018;-60
2023/06/27 00:41:15;;;;;;;2.65;0.35;;;;;;;20.02;57.36;101731.63;7358588;19;20089;-61
2023/06/27 00:43:43;;;;;;;5.35;0.70;;;;;;;20.02;57.45;101736.97;7357258;19;20546;-61
2023/06/27 00:46:11;;;;;;;4.35;0.50;;;;;;;20.00;57.69;101743.56;7357386;19;20764;-61
2023/06/27 00:48:39;;;;;;;5.25;0.40;;;;;;;19.96;57.94;101743.09;7358604;19;20010;-61
2023/06/27 00:51:09;;;;;;;3.70;0.40;;;;;;;19.97;57.94;101736.72;7357993;19;20135;-61
2023/06/27 00:53:37;;;;;;;5.88;0.50;;;;;;;20.00;58.03;101732.88;7360001;19;20013;-59
2023/06/27 00:56:05;;;;;;;3.33;0.45;;;;;;;20.01;58.05;101732.66;7359522;19;21214;-61
2023/06/27 00:58:33;;;;;;;5.60;0.50;;;;;;;20.02;58.00;101728.13;7354642;19;20026;-60
2023/06/27 01:01:02;;;;;;;6.43;0.50;;;;;;;20.01;57.62;101742.53;7357964;19;20018;-60
2023/06/27 01:03:32;;;;;;;6.25;0.50;;;;;;;19.97;58.26;101728.72;7357603;19;20043;-61
2023/06/27 01:06:08;;;;;;;7.00;1.02;;;;;;;19.97;58.78;101727.88;7359339;19;20014;-61
2023/06/27 01:08:41;;;;;;;4.25;0.60;;;;;;;19.96;58.10;101736.94;7358300;19;20010;-60
2023/06/27 01:11:16;;;;;;;6.53;0.47;;;;;;;19.94;58.32;101730.94;7359017;19;20060;-60
2023/06/27 01:13:49;;;;;;;2.60;0.40;;;;;;;19.94;58.00;101733.63;7357206;19;20683;-61
2023/06/27 01:16:19;;;;;;;1.98;0.45;;;;;;;19.92;58.67;101722.28;7355731;19;20108;-60
2023/06/27 01:18:47;;;;;;;4.50;0.32;;;;;;;19.91;58.51;101726.81;7358483;19;20011;-61
2023/06/27 01:21:17;;;;;;;2.40;0.30;;;;;;;19.90;58.28;101721.69;7358972;19;20014;-60
2023/06/27 01:23:55;;;;;;;5.90;0.50;;;;;;;19.90;58.36;101721.69;7359800;19;20018;-60
2023/06/27 01:26:22;;;;;;;2.45;0.35;;;;;;;19.88;58.31;101708.50;7364862;19;20018;-60
2023/06/27 01:28:50;;;;;;;5.28;0.60;;;;;;;19.88;58.39;101708.50;7367154;19;20133;-62
2023/06/27 01:31:35;;;;;;;3.53;0.50;;;;;;;19.92;58.89;101715.09;7364457;19;20022;-61
2023/06/27 01:34:14;;;;;;;5.95;0.40;;;;;;;19.94;58.33;101718.44;7364935;19;20014;-58
2023/06/27 01:36:47;;;;;;;3.50;0.40;;;;;;;19.98;58.38;101724.19;7364605;19;20055;-60
2023/06/27 01:39:18;;;;;;;4.60;0.40;;;;;;;19.93;58.57;101723.94;7364629;19;20041;-61
2023/06/27 01:41:48;;;;;;;5.60;0.40;;;;;;;19.86;58.74;101709.72;7364796;19;20026;-61
2023/06/27 01:44:19;;;;;;;4.47;0.43;;;;;;;19.86;59.01;101707.84;7364586;19;20126;-60
2023/06/27 01:46:48;;;;;;;4.97;0.38;;;;;;;19.89;58.77;101712.00;7365231;19;20014;-60
2023/06/27 01:49:16;;;;;;;5.45;0.52;;;;;;;19.91;58.84;101712.66;7365038;19;20021;-60
2023/06/27 01:51:43;;;;;;;5.25;0.40;;;;;;;19.89;58.76;101699.47;7363619;19;20047;-60
2023/06/27 01:54:11;;;;;;;4.38;0.40;;;;;;;19.89;59.17;101707.50;7366544;19;20025;-60
2023/06/27 01:56:38;;;;;;;3.47;0.40;;;;;;;19.90;59.60;101711.81;7364768;19;20021;-61
2023/06/27 01:59:05;;;;;;;4.93;0.40;;;;;;;19.88;59.02;101713.84;7359843;19;20015;-60
2023/06/27 02:01:33;;;;;;;5.50;0.40;;;;;;;19.83;58.80;101718.09;7361536;19;20011;-61
2023/06/27 02:04:03;;;;;;;3.33;0.50;;;;;;;19.82;59.15;101719.13;7364110;19;20524;-61
2023/06/27 02:06:30;;;;;;;5.88;0.63;;;;;;;19.82;59.23;101724.47;7363188;19;20125;-60
2023/06/27 02:08:57;;;;;;;3.10;0.47;;;;;;;19.83;59.26;101720.78;7364914;19;20038;-60
2023/06/27 02:11:25;;;;;;;4.97;0.50;;;;;;;19.83;59.37;101720.78;7362495;19;20018;-61
2023/06/27 02:13:52;;;;;;;3.22;0.40;;;;;;;19.84;59.24;101722.44;7361475;19;20017;-62
2023/06/27 02:16:19;;;;;;;2.58;0.30;;;;;;;19.81;59.31;101718.28;7359054;19;20083;-61
2023/06/27 02:18:47;;;;;;;5.28;0.40;;;;;;;19.81;59.09;101718.28;7364198;19;20023;-61
2023/06/27 02:21:14;;;;;;;3.05;0.40;;;;;;;19.82;59.95;101719.13;7365723;19;20776;-61
2023/06/27 02:23:41;;;;;;;3.13;0.50;;;;;;;19.82;59.75;101713.78;7364853;19;20097;-61
2023/06/27 02:26:08;;;;;;;6.68;1.08;;;;;;;19.79;59.63;101709.66;7365445;19;20550;-63
2023/06/27 02:28:36;;;;;;;4.47;0.40;;;;;;;19.73;59.44;101718.44;7365225;19;20017;-60
2023/06/27 02:31:04;;;;;;;7.30;0.40;;;;;;;19.68;59.79;101712.00;7363004;19;20496;-61
2023/06/27 02:33:31;;;;;;;2.38;0.40;;;;;;;19.66;61.75;101703.38;7364513;19;20086;-60
2023/06/27 02:35:58;;;;;;;7.05;0.77;;;;;;;19.64;60.21;101711.56;7364573;19;20015;-61
2023/06/27 02:38:26;;;;;;;5.78;0.50;;;;;;;19.63;60.55;101712.56;7363267;19;20020;-61
2023/06/27 02:40:54;;;;;;;2.35;0.40;;;;;;;19.59;60.17;101712.13;7364366;19;20041;-59
2023/06/27 02:43:21;;;;;;;4.88;0.40;;;;;;;19.57;60.57;101716.81;7360044;19;20375;-60
2023/06/27 02:45:48;;;;;;;4.30;0.40;;;;;;;19.53;60.60;101715.56;7358801;19;20499;-62
2023/06/27 02:48:16;;;;;;;5.75;0.50;;;;;;;19.50;60.86;101705.28;7363657;19;20556;-61
2023/06/27 02:50:46;;;;;;;2.97;0.40;;;;;;;19.50;61.48;101709.78;7361857;19;20037;-59
2023/06/27 02:53:13;;;;;;;4.07;0.50;;;;;;;19.45;61.26;101707.69;7362647;19;20014;-60
2023/06/27 02:55:40;;;;;;;3.47;0.30;;;;;;;19.43;61.33;101703.50;7362267;19;20050;-61
2023/06/27 02:58:08;;;;;;;4.05;0.50;;;;;;;19.40;61.78;101712.69;7362876;19;20997;-60
2023/06/27 03:00:35;;;;;;;4.00;0.38;;;;;;;19.35;61.55;101712.44;7362821;19;20013;-60
2023/06/27 03:03:03;;;;;;;3.22;0.50;;;;;;;19.30;62.00;101712.16;7356730;19;20017;-60
2023/06/27 03:05:30;;;;;;;4.00;0.55;;;;;;;19.28;61.87;101716.06;7364088;19;20439;-61
2023/06/27 03:07:58;;;;;;;1.95;0.40;;;;;;;19.25;62.29;101711.09;7361943;19;20014;-61
2023/06/27 03:10:25;;;;;;;3.47;0.43;;;;;;;19.29;62.53;101701.72;7364926;19;20407;-62
2023/06/27 03:12:53;;;;;;;4.72;0.40;;;;;;;19.28;62.10;101697.38;7361465;19;20230;-60
2023/06/27 03:15:20;;;;;;;4.07;0.47;;;;;;;19.23;62.50;101701.44;7360795;19;20018;-62
2023/06/27 03:17:47;;;;;;;5.57;0.50;;;;;;;19.26;62.54;101702.06;7355966;19;20019;-61
2023/06/27 03:20:14;;;;;;;9.02;0.60;;;;;;;19.28;62.66;101702.72;7363772;19;20053;-61
2023/06/27 03:22:43;;;;;;;4.82;0.40;;;;;;;19.34;63.36;101701.97;7362330;19;20010;-62
2023/06/27 03:25:10;;;;;;;11.25;0.80;;;;;;;19.37;62.89;101709.59;7363805;19;20038;-60
2023/06/27 03:27:38;;;;;;;9.90;0.68;;;;;;;19.38;62.60;101713.91;7359498;19;20006;-62
2023/06/27 03:30:07;;;;;;;3.63;0.47;;;;;;;19.36;62.29;101713.25;7361004;19;20022;-61
2023/06/27 03:32:34;;;;;;;6.63;0.50;;;;;;;19.31;63.03;101710.34;7354977;19;20034;-61
2023/06/27 03:35:02;;;;;;;4.80;0.65;;;;;;;19.25;62.95;101711.91;7363550;19;20021;-60
2023/06/27 03:37:30;;;;;;;3.45;0.45;;;;;;;19.25;63.72;101703.91;7360326;19;20022;-62
2023/06/27 03:39:57;;;;;;;6.47;0.88;;;;;;;19.24;63.50;101712.94;7363234;19;20019;-59
2023/06/27 03:42:24;;;;;;;3.47;0.50;;;;;;;19.27;63.01;101725.06;7363082;19;20018;-61
2023/06/27 03:44:51;;;;;;;5.15;0.57;;;;;;;19.29;63.04;101713.22;7360513;19;20026;-60
2023/06/27 03:47:19;;;;;;;4.40;0.50;;;;;;;19.25;63.37;101717.25;7361118;19;20014;-61
2023/06/27 03:49:46;;;;;;;5.13;0.82;;;;;;;19.24;63.79;101718.28;7359878;19;20034;-62
2023/06/27 03:52:13;;;;;;;5.88;0.30;;;;;;;19.29;64.00;101721.22;7362880;19;20029;-61
2023/06/27 03:54:40;;;;;;;3.20;0.43;;;;;;;19.27;63.58;101714.41;7362229;19;20817;-60
2023/06/27 03:57:10;;;;;;;5.63;0.82;;;;;;;19.26;63.69;101713.56;7361638;19;20021;-61
2023/06/27 03:59:37;;;;;;;3.72;0.30;;;;;;;19.27;63.80;101717.06;7358413;19;20475;-61
2023/06/27 04:02:05;;;;;;;5.90;0.50;;;;;;;19.28;63.74;101722.22;7359756;19;20010;-61
2023/06/27 04:04:32;;;;;;;4.93;0.40;;;;;;;19.29;64.17;101723.88;7356956;19;20570;-62
2023/06/27 04:07:00;;;;;;;7.88;0.70;;;;;;;19.31;64.01;101715.66;7362611;19;20023;-61
2023/06/27 04:09:27;;;;;;;3.55;0.40;;;;;;;19.30;63.94;101725.50;7359293;19;20051;-61
2023/06/27 04:11:54;;;;;;;3.50;0.40;;;;;;;19.24;64.33;101723.63;7361646;19;20014;-61
2023/06/27 04:14:22;;;;;;;6.63;0.85;;;;;;;19.21;64.36;101721.31;7360684;19;20528;-61
2023/06/27 04:16:53;;;;;;;3.80;0.40;;;;;;;19.21;64.65;101718.66;7357716;19;20018;-61
2023/06/27 04:19:21;;;;;;;7.43;0.38;;;;;;;19.22;65.16;101701.63;7360330;19;20020;-61
2023/06/27 04:21:48;;;;;;;6.00;0.60;;;;;;;19.19;64.24;101705.50;7361559;19;20028;-61
2023/06/27 04:24:15;;;;;;;4.20;0.50;;;;;;;19.19;64.67;101694.00;7361749;19;20017;-59
2023/06/27 04:26:43;;;;;;;4.38;0.50;;;;;;;19.21;64.92;101711.47;7361734;19;20129;-61
2023/06/27 04:29:10;;;;;;;8.07;0.50;;;;;;;19.16;65.00;101711.19;7360737;19;20699;-60
2023/06/27 04:31:38;;;;;;;8.35;0.80;;;;;;;19.17;64.52;101712.03;7358683;19;20022;-61
2023/06/27 04:34:08;;;;;;;2.85;0.60;;;;;;;19.18;64.99;101711.03;7358575;19;20030;-61
2023/06/27 04:36:40;;;;;;;4.10;0.47;;;;;;;19.17;65.17;101707.53;7359969;19;20610;-59
2023/06/27 04:39:09;;;;;;;7.72;0.60;;;;;;;19.15;65.20;101714.03;7358816;19;20035;-62
2023/06/27 04:41:36;;;;;;;4.60;0.50;;;;;;;19.17;65.29;101709.38;7362242;19;20018;-60
2023/06/27 04:44:04;;;;;;;6.60;0.65;;;;;;;19.17;65.44;101704.84;7357529;19;20019;-61
2023/06/27 04:46:31;;;;;;;7.00;0.70;;;;;;;19.19;65.29;101704.69;7357785;19;20370;-60
2023/06/27 04:48:59;;;;;;;4.55;0.47;;;;;;;19.18;65.06;101714.53;7360713;19;20551;-62
2023/06/27 04:51:28;;;;;;;9.32;0.60;;;;;;;19.16;65.56;101708.53;7358665;19;20011;-62
2023/06/27 04:53:56;;;;;;;6.03;0.50;;;;;;;19.14;65.58;101715.91;7359640;19;20102;-62
2023/06/27 04:56:26;;;;;;;8.30;1.35;;;;;;;19.12;65.48;101723.25;7361760;19;20093;-62
2023/06/27 04:58:53;;;;;;;6.25;0.50;;;;;;;19.16;65.84;101718.38;7359160;19;20428;-61
2023/06/27 05:01:21;;;;;;;5.40;0.60;;;;;;;19.18;65.60;101727.03;7365980;19;20022;-61
2023/06/27 05:03:48;;;;;;;8.35;1.05;;;;;;;19.21;66.23;101734.66;7365520;19;20018;-62
2023/06/27 05:06:16;;;;;;;5.60;0.60;;;;;;;19.28;66.10;101737.41;7368567;19;20021;-61
2023/06/27 05:08:44;;;;;;;8.18;0.60;;;;;;;19.28;65.93;101734.75;7364250;19;20065;-59
2023/06/27 05:11:11;;;;;;;8.85;0.70;;;;;;;19.27;65.59;101730.41;7368850;19;20019;-62
2023/06/27 05:13:39;;;;;;;4.63;0.70;;;;;;;19.27;65.89;101723.22;7364183;19;20031;-60
2023/06/27 05:16:06;;;;;;;10.90;0.65;;;;;;;19.21;65.41;101714.13;7365643;19;20888;-60
2023/06/27 05:18:34;;;;;;;4.72;0.60;;;;;;;19.14;65.83;101710.56;7363345;19;20025;-61
2023/06/27 05:21:01;;;;;;;5.50;0.60;;;;;;;19.16;66.16;101708.53;7367740;19;20041;-61
2023/06/27 05:23:28;;;;;;;5.03;0.52;;;;;;;19.19;66.22;101707.34;7363282;19;20011;-62
2023/06/27 05:25:55;;;;;;;4.30;0.47;;;;;;;19.16;65.65;101707.69;7366737;19;20023;-60
2023/06/27 05:28:23;;;;;;;7.95;0.68;;;;;;;19.13;65.97;101706.25;7368052;19;21163;-61
2023/06/27 05:30:50;;;;;;;4.88;0.57;;;;;;;19.14;66.29;101704.41;7364553;19;20086;-61
2023/06/27 05:33:18;;;;;;;6.47;0.63;;;;;;;19.15;66.33;101703.38;7362397;19;20880;-61
2023/06/27 05:35:45;;;;;;;9.85;1.95;;;;;;;19.13;66.46;101711.59;7368905;19;20018;-61
2023/06/27 05:38:12;;;;;;;8.93;0.98;;;;;;;19.16;66.63;101707.69;7364802;19;21688;-62
2023/06/27 05:40:40;;;;;;;5.95;0.65;;;;;;;19.27;66.92;101709.06;7365563;19;21116;-62
2023/06/27 05:43:08;;;;;;;6.88;1.25;;;;;;;19.32;66.33;101698.66;7363493;19;20026;-64
2023/06/27 05:45:36;;;;;;;6.97;0.70;;;;;;;19.34;66.35;101693.97;7363835;19;20407;-61
2023/06/27 05:48:04;;;;;;;5.85;0.80;;;;;;;19.40;66.03;101693.22;7364732;19;20022;-61
2023/06/27 05:50:31;;;;;;;9.25;1.10;;;;;;;19.48;65.73;101717.13;7364148;19;20105;-62
2023/06/27 05:52:58;;;;;;;4.93;0.70;;;;;;;19.50;66.42;101721.28;7365785;19;20018;-60
2023/06/27 05:55:26;;;;;;;4.70;0.80;;;;;;;19.50;66.26;101715.94;7365746;19;20447;-58
2023/06/27 05:57:53;;;;;;;5.60;1.00;;;;;;;19.53;66.24;101717.41;7362567;19;20102;-60
2023/06/27 06:00:21;;;;;;;5.35;0.60;;;;;;;19.54;65.92;101722.56;7363333;19;20014;-62
2023/06/27 06:02:48;;;;;;;8.05;0.80;;;;;;;19.53;66.36;101723.56;7363810;19;20062;-60
2023/06/27 06:05:17;;;;;;;8.07;0.95;;;;;;;19.51;66.21;101728.25;7365854;19;20010;-61
2023/06/27 06:07:44;;;;;;;4.30;0.68;;;;;;;19.50;66.53;101729.28;7365153;19;20021;-61
2023/06/27 06:10:12;;;;;;;6.28;0.65;;;;;;;19.50;66.90;101726.63;7361145;19;20052;-61
2023/06/27 06:12:41;;;;;;;4.43;0.80;;;;;;;19.55;66.41;101720.72;7361477;19;20019;-61
2023/06/27 06:15:09;;;;;;;7.63;0.88;;;;;;;19.55;66.43;101729.56;7365271;19;20379;-60
2023/06/27 06:17:36;;;;;;;10.48;1.13;;;;;;;19.56;66.11;101733.84;7337297;19;20026;-62
2023/06/27 06:20:09;;;;;;;4.07;0.60;;;;;;;19.54;66.34;101727.91;7337446;19;20727;-61
2023/06/27 06:22:37;;;;;;;5.70;0.93;;;;;;;19.57;66.49;101716.81;7360873;19;20020;-60
2023/06/27 06:25:05;;;;;;;4.30;0.95;;;;;;;19.57;66.48;101724.84;7362497;19;20025;-62
2023/06/27 06:27:32;;;;;;;7.40;0.90;;;;;;;19.59;66.19;101722.00;7361226;19;20018;-59
2023/06/27 06:30:00;;;;;;;5.50;0.60;;;;;;;19.61;65.77;101726.09;7362754;19;20011;-62
2023/06/27 06:32:27;;;;;;;8.13;1.15;;;;;;;19.62;65.87;101716.25;7359922;19;20029;-60
2023/06/27 06:34:55;;;;;;;5.13;0.77;;;;;;;19.61;66.05;101717.25;7361829;19;20018;-60
2023/06/27 06:37:23;;;;;;;7.32;1.02;;;;;;;19.64;65.91;101724.91;7358968;19;20015;-61
2023/06/27 06:39:50;;;;;;;9.52;0.82;;;;;;;19.66;66.72;101711.38;7351551;19;20020;-62
2023/06/27 06:42:18;;;;;;;5.60;0.70;;;;;;;19.66;66.28;101716.72;7352124;19;21005;-61
2023/06/27 06:44:47;;;;;;;4.47;0.60;;;;;;;19.65;66.10;101713.22;7355690;19;20023;-61
2023/06/27 06:47:14;;;;;;;7.57;0.80;;;;;;;19.66;66.06;101711.38;7358738;19;20021;-63
2023/06/27 06:49:42;;;;;;;9.77;1.58;;;;;;;19.68;66.84;101715.50;7359647;19;20040;-61
2023/06/27 06:52:09;;;;;;;7.22;0.85;;;;;;;19.72;66.66;101723.94;7359413;19;20026;-60
2023/06/27 06:54:38;;;;;;;6.03;0.75;;;;;;;19.75;66.33;101724.41;7356867;19;20024;-61
2023/06/27 06:57:08;;;;;;;6.22;0.80;;;;;;;19.81;67.06;101736.97;7360333;19;20022;-60
2023/06/27 06:59:36;;;;;;;8.35;1.08;;;;;;;19.86;66.47;101723.09;7359695;19;20010;-62
2023/06/27 07:02:04;;;;;;;6.47;0.82;;;;;;;19.90;66.18;101729.69;7357449;19;20019;-62
2023/06/27 07:04:31;;;;;;;9.02;0.60;;;;;;;19.93;66.07;101735.47;7359283;19;20052;-62
2023/06/27 07:06:59;;;;;;;10.15;0.80;;;;;;;20.02;65.86;101745.00;7359463;19;20022;-60
2023/06/27 07:09:28;;;;;;;9.35;0.70;;;;;;;20.07;65.40;101745.25;7360951;19;20051;-62
2023/06/27 07:11:56;;;;;;;7.63;0.70;;;;;;;20.15;65.75;101743.47;7363851;19;20018;-61
2023/06/27 07:14:23;;;;;;;4.05;0.90;;;;;;;20.22;65.52;101758.53;7361443;19;20014;-61
2023/06/27 07:16:51;;;;;;;4.90;0.65;;;;;;;20.26;64.78;101764.34;7361663;19;20034;-60
2023/06/27 07:19:19;;;;;;;6.55;0.85;;;;;;;20.22;64.92;101750.50;7360758;19;20102;-61
2023/06/27 07:21:46;;;;;;;6.78;0.90;;;;;;;20.25;64.93;101751.97;7360043;19;20877;-60
2023/06/27 07:24:13;;;;;;;5.45;0.55;;;;;;;20.32;64.74;101737.66;7361008;19;20052;-61
2023/06/27 07:26:41;;;;;;;10.15;1.08;;;;;;;20.36;64.62;101733.59;7361513;19;20397;-62
2023/06/27 07:29:10;;;;;;;6.30;1.00;;;;;;;20.40;63.95;101736.72;7362064;19;20029;-62
2023/06/27 07:31:38;;;;;;;5.25;0.70;;;;;;;20.45;64.15;101736.94;7360144;19;20018;-60
2023/06/27 07:34:06;;;;;;;7.15;0.60;;;;;;;20.55;63.66;101733.94;7359098;19;20010;-62
2023/06/27 07:36:35;;;;;;;6.47;0.70;;;;;;;20.61;63.24;101741.19;7362606;19;20093;-61
2023/06/27 07:39:03;;;;;;;6.40;0.63;;;;;;;20.77;62.96;101740.88;7360143;19;20006;-62
2023/06/27 07:41:32;;;;;;;11.65;0.77;;;;;;;20.96;62.20;101742.00;7361031;19;20351;-62
2023/06/27 07:43:59;;;;;;;7.18;0.90;;;;;;;21.11;61.51;101737.31;7360309;19;20621;-61
2023/06/27 07:46:27;;;;;;;8.43;0.80;;;;;;;21.69;60.78;101750.09;7358279;19;20010;-61
2023/06/27 07:48:59;;;;;;;7.43;0.70;;;;;;;22.21;58.10;101759.25;7359217;19;20055;-60
2023/06/27 07:51:27;;;;;;;5.45;0.70;;;;;;;22.31;57.01;101758.84;7359141;19;20044;-62
2023/06/27 07:53:56;;;;;;;5.35;0.70;;;;;;;22.21;57.92;101750.38;7362826;19;20899;-63
2023/06/27 07:56:24;;;;;;;6.95;0.57;;;;;;;22.06;57.38;101754.09;7362405;19;21086;-62
2023/06/27 07:58:52;;;;;;;5.45;1.10;;;;;;;21.92;57.21;101748.91;7359173;19;20015;-61
2023/06/27 08:01:20;;;;;;;9.43;0.75;;;;;;;21.93;57.67;101748.72;7356931;19;20026;-61
2023/06/27 08:03:47;;;;;;;6.38;0.70;;;;;;;21.90;57.15;101749.09;7357286;19;20029;-62
2023/06/27 08:06:15;;;;;;;7.72;1.02;;;;;;;21.91;56.63;101753.44;7362140;19;20018;-60
2023/06/27 08:08:43;;;;;;;6.88;0.70;;;;;;;21.84;56.61;101749.91;7357958;19;20018;-62
2023/06/27 08:11:10;;;;;;;18.70;0.93;;;;;;;21.74;57.13;101749.47;7360203;19;20018;-61
2023/06/27 08:13:41;;;;;;;8.57;0.70;;;;;;;21.62;57.20;101746.59;7360786;19;20014;-60
2023/06/27 08:16:09;;;;;;;7.97;1.23;;;;;;;21.56;57.85;101742.03;7358001;19;20018;-61
2023/06/27 08:18:37;;;;;;;4.22;0.75;;;;;;;21.55;57.73;101748.41;7357291;19;20018;-61
2023/06/27 08:21:04;;;;;;;5.35;0.73;;;;;;;21.66;58.36;101744.31;7355860;19;20018;-61
2023/06/27 08:23:32;;;;;;;5.70;0.80;;;;;;;21.77;58.65;101744.56;7360438;19;20565;-61
2023/06/27 08:25:59;;;;;;;6.28;0.73;;;;;;;21.84;57.46;101741.88;7361209;19;20463;-63
2023/06/27 08:28:27;;;;;;;4.53;0.60;;;;;;;21.82;56.52;101733.22;7359958;19;20022;-60
2023/06/27 08:30:55;;;;;;;6.72;0.80;;;;;;;21.77;56.47;101733.84;7357260;19;20014;-63
2023/06/27 08:33:24;;;;;;;7.32;0.90;;;;;;;21.88;57.64;101739.63;7360183;19;20035;-61
2023/06/27 08:35:52;;;;;;;10.00;0.73;;;;;;;21.97;55.91;101735.75;7365698;19;20048;-62
2023/06/27 08:38:21;;;;;;;5.32;0.60;;;;;;;21.95;55.79;101735.13;7364280;19;21006;-62
2023/06/27 08:40:55;;;;;;;6.40;0.77;;;;;;;21.96;55.94;101721.50;7363206;19;20539;-61
2023/06/27 08:43:25;;;;;;;6.38;0.68;;;;;;;21.93;54.83;101716.53;7366177;19;21591;-61
2023/06/27 08:45:54;;;;;;;8.05;0.65;;;;;;;21.99;56.20;101712.25;7364935;19;20022;-61
2023/06/27 08:48:22;;;;;;;4.15;0.70;;;;;;;22.02;56.31;101707.28;7366919;19;20010;-60
2023/06/27 08:50:52;;;;;;;5.00;0.47;;;;;;;22.11;53.96;101718.63;7365642;19;20006;-64
2023/06/27 08:53:23;;;;;;;7.65;0.77;;;;;;;22.15;53.62;101719.84;7367348;19;20019;-62
2023/06/27 08:56:00;;;;;;;6.45;1.00;;;;;;;22.16;54.88;101710.78;7363790;19;20045;-62
2023/06/27 08:58:36;;;;;;;6.70;0.85;;;;;;;22.14;55.03;101716.38;7365522;19;20029;-62
2023/06/27 09:01:05;;;;;;;11.40;0.95;;;;;;;22.06;53.55;101716.56;7364483;19;20021;-61
2023/06/27 09:03:34;;;;;;;6.95;0.70;;;;;;;21.94;54.53;101710.16;7366457;19;20024;-61
2023/06/27 09:06:05;;;;;;;7.07;0.75;;;;;;;21.95;54.73;101706.44;7366872;19;20170;-64
2023/06/27 09:08:34;;;;;;;6.63;0.90;;;;;;;21.99;54.79;101707.69;7344981;19;20122;-61
2023/06/27 09:11:04;;;;;;;8.50;0.98;;;;;;;21.99;53.60;101701.53;7360175;19;20022;-62
2023/06/27 09:13:31;;;;;;;5.80;0.80;;;;;;;21.98;54.00;101707.91;7361859;19;20006;-61
2023/06/27 09:15:59;;;;;;;3.90;0.60;;;;;;;21.96;52.57;101708.09;7342406;19;20017;-61
2023/06/27 09:18:26;;;;;;;3.85;0.63;;;;;;;21.97;54.33;101700.91;7362315;19;20006;-61
2023/06/27 09:20:56;;;;;;;6.25;0.60;;;;;;;22.01;nan;101710.16;7363268;19;20010;-60
2023/06/27 09:23:26;;;;;;;5.00;0.60;;;;;;;22.13;53.54;101712.03;7360784;19;20014;-62
2023/06/27 09:26:09;;;;;;;7.40;0.85;;;;;;;22.27;53.33;101702.13;7363413;19;20038;-60
2023/06/27 09:28:48;;;;;;;5.50;0.43;;;;;;;22.35;51.85;101701.88;7364278;19;20014;-61
2023/06/27 09:31:18;;;;;;;5.63;0.65;;;;;;;22.38;51.55;101706.03;7361867;19;20062;-60
2023/06/27 09:33:48;;;;;;;2.83;0.70;;;;;;;22.42;51.59;101701.88;7360509;19;20006;-61
2023/06/27 09:36:30;;;;;;;6.38;0.60;;;;;;;22.33;51.62;101708.50;7362706;19;20137;-62
2023/06/27 09:39:03;;;;;;;4.70;0.70;;;;;;;22.25;51.45;101701.50;7358091;19;20029;-61
2023/06/27 09:41:44;;;;;;;6.80;1.48;;;;;;;22.21;52.22;101700.25;7361745;19;20053;-61
2023/06/27 09:44:15;;;;;;;5.53;0.75;;;;;;;22.18;51.78;101704.19;7356175;19;20014;-62
2023/06/27 09:46:45;;;;;;;9.77;0.80;;;;;;;22.18;51.36;101698.84;7358285;19;20011;-61
2023/06/27 09:49:14;;;;;;;6.57;0.55;;;;;;;22.18;51.12;101701.50;7360964;19;20493;-61
2023/06/27 09:51:46;;;;;;;11.27;0.70;;;;;;;22.21;52.02;101692.22;7357956;19;20102;-61
2023/06/27 09:54:16;;;;;;;4.90;0.50;;;;;;;22.22;51.04;101693.88;7300146;19;20040;-61
2023/06/27 09:56:50;;;;;;;6.47;0.70;;;;;;;22.21;51.57;101686.84;7357978;19;20023;-62
2023/06/27 09:59:20;;;;;;;5.70;0.60;;;;;;;22.18;50.70;101696.16;7358714;19;20964;-62
2023/06/27 10:01:52;;;;;;;5.40;0.60;;;;;;;22.16;50.93;101694.69;7353955;19;20054;-62
2023/06/27 10:04:20;;;;;;;7.78;0.60;;;;;;;22.18;50.13;101687.28;7304418;19;20115;-62
2023/06/27 10:06:51;;;;;;;6.35;0.50;;;;;;;22.22;50.28;101693.03;7345778;19;20665;-61
2023/06/27 10:09:19;;;;;;;4.07;0.50;;;;;;;22.21;50.40;101689.53;7356332;19;20014;-61
2023/06/27 10:11:46;;;;;;;7.20;0.60;;;;;;;22.25;50.92;101685.41;7349074;19;20018;-61
2023/06/27 10:14:15;;;;;;;5.72;0.60;;;;;;;22.35;50.93;101687.69;7359800;19;20045;-61
2023/06/27 10:16:43;;;;;;;5.60;0.70;;;;;;;22.44;51.06;101686.41;7346598;19;20025;-59
2023/06/27 10:19:12;;;;;;;4.60;0.60;;;;;;;22.58;50.54;101680.81;7357906;19;20029;-60
2023/06/27 10:21:41;;;;;;;4.72;0.88;;;;;;;22.72;49.53;101680.78;7357875;19;20097;-61
2023/06/27 10:24:09;;;;;;;3.53;0.77;;;;;;;22.74;49.61;101684.91;7356460;19;20018;-61
2023/06/27 10:26:37;;;;;;;3.67;0.90;;;;;;;22.74;49.52;101684.91;7355490;19;20022;-61
2023/06/27 10:29:14;;;;;;;5.25;1.13;;;;;;;22.71;50.13;101674.59;7342528;19;20051;-61
2023/06/27 10:31:44;;;;;;;6.25;0.70;;;;;;;22.68;50.20;101680.34;7353685;19;20006;-61
2023/06/27 10:34:28;;;;;;;4.38;0.60;;;;;;;22.67;48.89;101688.63;7354925;19;20055;-61
2023/06/27 10:36:56;;;;;;;5.57;0.60;;;;;;;22.65;50.20;101679.97;7336788;19;20622;-60
2023/06/27 10:39:27;;;;;;;6.50;0.60;;;;;;;22.61;48.93;101664.28;7354917;19;20089;-62
2023/06/27 10:42:00;;;;;;;3.17;0.60;;;;;;;22.58;49.55;101667.38;7359788;19;20015;-60
2023/06/27 10:44:29;;;;;;;3.42;0.63;;;;;;;22.58;49.93;101664.72;7358231;19;20043;-61
2023/06/27 10:47:15;;;;;;;4.20;0.50;;;;;;;22.61;50.92;101666.13;7345303;19;20013;-61
2023/06/27 10:49:47;;;;;;;5.30;0.60;;;;;;;22.68;50.66;101672.31;7357988;19;20015;-61
2023/06/27 10:52:25;;;;;;;4.53;0.68;;;;;;;22.70;50.78;101674.78;7355824;19;20025;-61
2023/06/27 10:55:12;;;;;;;4.13;0.60;;;;;;;22.75;51.05;101675.00;7353802;19;20101;-64
2023/06/27 10:57:40;;;;;;;4.65;0.65;;;;;;;22.81;51.47;101672.28;7351106;19;20011;-61
2023/06/27 11:00:26;;;;;;;4.53;0.88;;;;;;;22.91;52.37;101672.66;7346740;19;20018;-61
2023/06/27 11:02:56;;;;;;;5.35;0.70;;;;;;;23.00;51.25;101671.41;7345596;19;20881;-62
2023/06/27 11:05:38;;;;;;;3.83;0.57;;;;;;;23.12;51.74;101665.31;7355003;19;20014;-62
2023/06/27 11:08:10;;;;;;;4.85;0.80;;;;;;;23.22;52.23;101661.13;7331386;19;20018;-61
2023/06/27 11:10:48;;;;;;;6.28;1.00;;;;;;;23.28;51.39;101659.44;7359943;19;20015;-61
2023/06/27 11:13:21;;;;;;;3.33;0.60;;;;;;;23.26;51.51;101661.56;7358650;19;20018;-61
2023/06/27 11:15:52;;;;;;;7.43;0.70;;;;;;;23.25;51.41;101668.78;7356021;19;20019;-62
2023/06/27 11:18:21;;;;;;;6.05;0.85;;;;;;;23.21;51.41;101666.75;7355499;19;20082;-61
2023/06/27 11:20:49;;;;;;;11.77;0.90;;;;;;;23.18;51.82;101673.34;7360104;19;21703;-61
2023/06/27 11:23:21;;;;;;;13.30;1.50;;;;;;;23.12;51.69;101668.84;7356738;19;20044;-62
2023/06/27 11:25:49;;;;;;;7.22;0.80;;;;;;;23.12;51.97;101666.16;7356289;19;20049;-62
2023/06/27 11:28:18;;;;;;;3.55;0.73;;;;;;;23.13;51.42;101669.66;7358258;19;20015;-61
2023/06/27 11:30:46;;;;;;;7.93;1.00;;;;;;;23.15;51.54;101671.13;7357248;19;20026;-60
2023/06/27 11:33:16;;;;;;;7.18;0.70;;;;;;;23.15;51.29;101671.13;7352777;19;20025;-62